Bath, South Dakota
Current Conditions -  °F | °C
As of 10:53 AM on Saturday 22 Nov 2014 (Local Time) from KABR Reporting Station
Clear Clear  
Wind Chill: 23°   Ceiling: Unl
Heat Index: 30°   Visibility: 9mi
Dew Point: 25°   Wind: 7mph
Humidity: 82%   Direction: 170°S
Pressure: 29.58"   Gusts: NA
Location:  45.47°N, 98.33°W
Report Text: KABR 221653Z AUTO 17006KT 9SM CLR M01/M04 A2958 RMK AO2 SLP034 T10111039
Loading
Personal Weather Stations






























Interactive Weather Map New forecast layout! Learn more

10-Day Weather Forecast

Advertisements
Track Severe Weather on mobile